createdAt,value
2019-05-26T00:00:26.875Z,11.67
2019-05-26T00:02:59.901Z,11.51
2019-05-26T00:05:32.522Z,11.52
2019-05-26T00:08:05.107Z,11.28
2019-05-26T00:10:37.517Z,11.17
2019-05-26T00:13:09.934Z,11.09
2019-05-26T00:15:42.740Z,11.10
2019-05-26T00:18:15.624Z,11.28
2019-05-26T00:20:48.183Z,11.48
2019-05-26T00:23:20.897Z,11.63
2019-05-26T00:25:54.471Z,11.63
2019-05-26T00:28:26.965Z,11.73
2019-05-26T00:30:59.916Z,11.51
2019-05-26T00:33:32.376Z,11.36
2019-05-26T00:36:05.140Z,11.30
2019-05-26T00:38:38.146Z,11.19
2019-05-26T00:41:10.568Z,11.13
2019-05-26T00:43:43.282Z,11.03
2019-05-26T00:46:15.824Z,10.99
2019-05-26T00:48:49.154Z,10.95
2019-05-26T00:51:21.625Z,10.96
2019-05-26T00:53:53.515Z,10.96
2019-05-26T00:56:26.117Z,11.02
2019-05-26T00:58:59.638Z,11.17
2019-05-26T01:01:32.559Z,11.18
2019-05-26T01:04:05.311Z,11.21
2019-05-26T01:06:38.334Z,11.42
2019-05-26T01:09:11.319Z,11.67
2019-05-26T01:11:43.821Z,11.67
2019-05-26T01:14:16.329Z,11.75
2019-05-26T01:16:48.667Z,11.66
2019-05-26T01:19:21.135Z,11.75
2019-05-26T01:21:53.645Z,11.79
2019-05-26T01:24:26.783Z,11.74
2019-05-26T01:26:58.903Z,11.80
2019-05-26T01:29:31.526Z,11.82
2019-05-26T01:32:04.172Z,11.84
2019-05-26T01:34:36.614Z,11.83
2019-05-26T01:37:09.355Z,11.88
2019-05-26T01:39:42.311Z,11.85
2019-05-26T01:42:14.939Z,11.68
2019-05-26T01:44:47.651Z,11.78
2019-05-26T01:47:20.180Z,11.81
2019-05-26T01:49:52.934Z,11.79
2019-05-26T01:52:25.555Z,11.81
2019-05-26T01:54:58.047Z,11.65
2019-05-26T01:57:30.913Z,11.52
2019-05-26T02:00:03.364Z,11.47
2019-05-26T02:02:36.740Z,11.49
2019-05-26T02:05:09.391Z,11.42
2019-05-26T02:07:42.208Z,11.39
2019-05-26T02:10:15.144Z,11.41
2019-05-26T02:12:47.819Z,11.38
2019-05-26T02:15:21.242Z,11.39
2019-05-26T02:17:54.123Z,11.45
2019-05-26T02:20:27.045Z,11.56
2019-05-26T02:22:59.540Z,11.31
2019-05-26T02:25:32.092Z,10.96
2019-05-26T02:28:04.699Z,10.75
2019-05-26T02:30:37.096Z,10.71
2019-05-26T02:33:09.171Z,10.53
2019-05-26T02:35:41.654Z,10.39
2019-05-26T02:38:13.507Z,10.31
2019-05-26T02:40:46.312Z,10.26
2019-05-26T02:43:19.194Z,10.28
2019-05-26T02:45:52.037Z,10.11
2019-05-26T02:48:24.220Z,10.04
2019-05-26T02:50:57.227Z,10.03
2019-05-26T02:53:30.078Z,10.06
2019-05-26T02:56:02.862Z,10.17
2019-05-26T02:58:35.481Z,10.33
2019-05-26T03:01:08.195Z,10.62
2019-05-26T03:03:40.900Z,10.75
2019-05-26T03:06:14.468Z,10.85
2019-05-26T03:08:48.455Z,10.95
2019-05-26T03:11:21.903Z,11.08
2019-05-26T03:13:55.715Z,11.10
2019-05-26T03:16:29.975Z,11.18
2019-05-26T03:19:04.584Z,11.07
2019-05-26T03:21:38.303Z,11.22
2019-05-26T03:24:10.890Z,11.24
2019-05-26T03:26:43.662Z,11.21
2019-05-26T03:29:16.329Z,11.22
2019-05-26T03:31:49.172Z,11.29
2019-05-26T03:34:21.673Z,11.26
2019-05-26T03:36:54.205Z,11.29
2019-05-26T03:39:43.237Z,11.27
2019-05-26T03:42:00.716Z,11.35
2019-05-26T03:44:33.599Z,11.35
2019-05-26T03:47:06.357Z,11.21
2019-05-26T03:49:38.845Z,11.44
2019-05-26T03:52:12.219Z,11.56
2019-05-26T03:54:44.840Z,11.63
2019-05-26T03:57:17.619Z,11.57
2019-05-26T03:59:50.060Z,11.74
2019-05-26T04:02:22.579Z,11.90
2019-05-26T04:04:55.128Z,11.78
2019-05-26T04:07:27.975Z,12.06
2019-05-26T04:10:05.213Z,12.20
2019-05-26T04:12:34.769Z,12.25
2019-05-26T04:15:07.437Z,12.24
2019-05-26T04:17:39.948Z,12.33
2019-05-26T04:20:12.607Z,12.36
2019-05-26T04:22:45.316Z,12.32
2019-05-26T04:25:17.997Z,12.27
2019-05-26T04:27:50.446Z,12.41
2019-05-26T04:30:23.609Z,12.62
2019-05-26T04:32:56.318Z,12.62
2019-05-26T04:35:28.882Z,12.72
2019-05-26T04:38:01.458Z,12.84
2019-05-26T04:40:34.477Z,13.02
2019-05-26T04:43:07.084Z,13.13
2019-05-26T04:45:39.611Z,13.24
2019-05-26T04:48:12.165Z,13.47
2019-05-26T04:50:44.724Z,13.64
2019-05-26T04:53:17.558Z,13.76
2019-05-26T04:55:49.929Z,13.88
2019-05-26T04:58:22.671Z,13.86
2019-05-26T05:00:55.009Z,14.04
2019-05-26T05:03:28.006Z,14.23
2019-05-26T05:06:00.648Z,14.41
2019-05-26T05:08:32.901Z,14.39
2019-05-26T05:11:05.806Z,14.65
2019-05-26T05:13:38.408Z,14.81
2019-05-26T05:16:10.834Z,15.06
2019-05-26T05:18:43.370Z,15.29
2019-05-26T05:21:15.869Z,15.50
2019-05-26T05:23:48.309Z,15.63
2019-05-26T05:26:20.978Z,15.77
2019-05-26T05:28:53.357Z,15.86
2019-05-26T05:31:26.074Z,16.07
2019-05-26T05:33:58.862Z,16.23
2019-05-26T05:36:31.758Z,16.26
2019-05-26T05:39:05.115Z,16.24
2019-05-26T05:41:37.701Z,16.54
2019-05-26T05:44:10.320Z,16.75
2019-05-26T05:46:42.751Z,16.95
2019-05-26T05:49:15.465Z,17.16
2019-05-26T05:51:48.292Z,17.29
2019-05-26T05:54:20.760Z,17.29
2019-05-26T05:56:55.582Z,17.53
2019-05-26T05:59:27.701Z,17.64
2019-05-26T06:02:00.544Z,17.74
2019-05-26T06:04:33.085Z,17.84
2019-05-26T06:07:05.706Z,18.03
2019-05-26T06:09:39.321Z,18.31
2019-05-26T06:12:14.747Z,18.50
2019-05-26T06:14:47.429Z,18.59
2019-05-26T06:17:19.974Z,18.81
2019-05-26T06:19:52.555Z,18.75
2019-05-26T06:22:25.166Z,18.74
2019-05-26T06:24:57.999Z,18.43
2019-05-26T06:27:30.454Z,18.78
2019-05-26T06:30:02.878Z,18.84
2019-05-26T06:32:35.686Z,19.04
2019-05-26T06:35:08.538Z,19.06
2019-05-26T06:37:41.563Z,19.13
2019-05-26T06:40:14.600Z,19.44
2019-05-26T06:42:45.770Z,19.73
2019-05-26T06:45:18.712Z,19.80
2019-05-26T06:47:50.400Z,20.01
2019-05-26T06:50:22.833Z,19.74
2019-05-26T06:52:55.310Z,19.85
2019-05-26T06:55:29.045Z,20.07
2019-05-26T06:58:01.402Z,20.30
2019-05-26T07:00:34.054Z,20.42
2019-05-26T07:03:06.637Z,20.68
2019-05-26T07:05:42.126Z,20.86
2019-05-26T07:08:14.084Z,21.00
2019-05-26T07:10:46.450Z,20.75
2019-05-26T07:13:19.135Z,21.07
2019-05-26T07:15:51.550Z,21.20
2019-05-26T07:18:23.998Z,21.35
2019-05-26T07:20:56.851Z,21.33
2019-05-26T07:23:29.562Z,21.20
2019-05-26T07:26:02.394Z,21.43
2019-05-26T07:28:34.547Z,21.62
2019-05-26T07:31:07.179Z,21.94
2019-05-26T07:33:40.951Z,21.94
2019-05-26T07:36:13.260Z,22.08
2019-05-26T07:38:45.914Z,22.06
2019-05-26T07:41:18.497Z,22.31
2019-05-26T07:43:50.939Z,22.39
2019-05-26T07:46:23.925Z,22.46
2019-05-26T07:48:56.592Z,22.57
2019-05-26T07:51:29.100Z,22.57
2019-05-26T07:54:01.977Z,22.76
2019-05-26T07:56:34.703Z,22.93
2019-05-26T07:59:07.093Z,22.63
2019-05-26T08:01:39.963Z,22.86
2019-05-26T08:04:12.713Z,23.02
2019-05-26T08:06:45.155Z,23.27
2019-05-26T08:09:18.232Z,23.50
2019-05-26T08:11:50.543Z,23.56
2019-05-26T08:14:23.206Z,23.70
2019-05-26T08:16:55.605Z,23.82
2019-05-26T08:19:27.967Z,23.82
2019-05-26T08:22:00.760Z,23.70
2019-05-26T08:24:33.510Z,23.73
2019-05-26T08:27:06.092Z,23.87
2019-05-26T08:29:37.683Z,24.28
2019-05-26T08:32:10.279Z,24.18
2019-05-26T08:34:43.028Z,24.37
2019-05-26T08:37:15.451Z,24.71
2019-05-26T08:39:48.975Z,24.84
2019-05-26T08:42:27.369Z,24.96
2019-05-26T08:44:56.065Z,25.03
2019-05-26T08:47:28.769Z,25.11
2019-05-26T08:50:01.509Z,24.89
2019-05-26T08:52:33.499Z,25.21
2019-05-26T08:55:06.346Z,25.19
2019-05-26T08:57:37.432Z,25.28
2019-05-26T09:00:10.763Z,25.40
2019-05-26T09:02:43.544Z,25.34
2019-05-26T09:05:16.621Z,25.39
2019-05-26T09:07:49.111Z,25.54
2019-05-26T09:10:22.092Z,25.58
2019-05-26T09:13:01.255Z,25.83
2019-05-26T09:15:29.092Z,25.97
2019-05-26T09:18:01.911Z,25.78
2019-05-26T09:20:33.112Z,25.57
2019-05-26T09:23:05.996Z,25.98
2019-05-26T09:25:37.302Z,25.97
2019-05-26T09:28:10.286Z,26.15
2019-05-26T09:30:43.046Z,25.58
2019-05-26T09:33:15.705Z,25.97
2019-05-26T09:35:48.228Z,26.25
2019-05-26T09:38:20.639Z,26.51
2019-05-26T09:40:53.161Z,26.56
2019-05-26T09:43:25.772Z,26.46
2019-05-26T09:45:58.828Z,26.29
2019-05-26T09:48:31.346Z,26.54
2019-05-26T09:51:03.963Z,26.54
2019-05-26T09:53:36.378Z,26.52
2019-05-26T09:56:08.806Z,26.74
2019-05-26T09:58:41.389Z,26.88
2019-05-26T10:01:14.713Z,26.74
2019-05-26T10:03:48.484Z,26.79
2019-05-26T10:06:21.918Z,26.88
2019-05-26T10:08:54.549Z,26.77
2019-05-26T10:11:26.984Z,26.81
2019-05-26T10:13:59.469Z,26.68
2019-05-26T10:16:32.176Z,27.11
2019-05-26T10:19:05.220Z,27.29
2019-05-26T10:21:37.721Z,27.57
2019-05-26T10:24:10.784Z,27.78
2019-05-26T10:26:44.691Z,27.68
2019-05-26T10:29:17.491Z,27.55
2019-05-26T10:31:48.588Z,27.67
2019-05-26T10:34:22.263Z,27.88
2019-05-26T10:36:53.236Z,27.61
2019-05-26T10:39:25.773Z,27.80
2019-05-26T10:41:58.495Z,28.09
2019-05-26T10:44:30.006Z,27.86
2019-05-26T10:47:02.428Z,28.09
2019-05-26T10:49:34.857Z,28.08
2019-05-26T10:52:07.495Z,28.24
2019-05-26T10:54:40.391Z,28.24
2019-05-26T10:57:12.980Z,28.11
2019-05-26T10:59:45.159Z,28.15
2019-05-26T11:02:17.848Z,27.91
2019-05-26T11:04:48.975Z,28.32
2019-05-26T11:07:21.545Z,28.29
2019-05-26T11:09:53.819Z,28.29
2019-05-26T11:12:26.472Z,28.44
2019-05-26T11:14:58.873Z,28.20
2019-05-26T11:17:31.788Z,28.31
2019-05-26T11:20:04.606Z,28.58
2019-05-26T11:22:37.157Z,28.67
2019-05-26T11:25:10.097Z,28.29
2019-05-26T11:27:42.977Z,28.26
2019-05-26T11:30:17.447Z,28.37
2019-05-26T11:32:49.994Z,28.34
2019-05-26T11:35:23.041Z,28.87
2019-05-26T11:37:55.810Z,28.88
2019-05-26T11:40:28.794Z,29.04
2019-05-26T11:43:14.047Z,29.21
2019-05-26T11:45:36.069Z,29.06
2019-05-26T11:48:08.889Z,29.10
2019-05-26T11:50:41.413Z,29.69
2019-05-26T11:53:13.901Z,29.90
2019-05-26T11:55:47.029Z,30.29
2019-05-26T11:58:19.597Z,30.32
2019-05-26T12:00:53.379Z,30.17
2019-05-26T12:03:25.816Z,29.73
2019-05-26T12:05:58.471Z,30.38
2019-05-26T12:08:29.663Z,30.42
2019-05-26T12:11:02.275Z,30.00
2019-05-26T12:13:36.569Z,30.13
2019-05-26T12:16:07.789Z,29.53
2019-05-26T12:18:38.988Z,30.47
2019-05-26T12:21:11.312Z,30.63
2019-05-26T12:23:44.185Z,30.18
2019-05-26T12:26:16.908Z,30.52
2019-05-26T12:28:49.329Z,30.26
2019-05-26T12:31:21.723Z,30.26
2019-05-26T12:33:53.858Z,30.30
2019-05-26T12:36:26.043Z,30.96
2019-05-26T12:38:59.157Z,31.61
2019-05-26T12:41:34.971Z,31.84
2019-05-26T12:44:10.740Z,32.07
2019-05-26T12:49:36.942Z,32.40
2019-05-26T12:52:08.632Z,32.72
2019-05-26T12:54:40.169Z,32.40
2019-05-26T12:57:11.570Z,32.13
2019-05-26T12:59:42.919Z,31.46
2019-05-26T13:02:14.397Z,30.67
2019-05-26T13:04:45.798Z,30.51
2019-05-26T13:07:17.380Z,30.39
2019-05-26T13:09:48.723Z,30.23
2019-05-26T13:12:20.256Z,30.21
2019-05-26T13:15:04.972Z,30.37
2019-05-26T13:17:25.160Z,30.68
2019-05-26T13:19:56.595Z,30.48
2019-05-26T13:22:28.106Z,30.23
2019-05-26T13:24:59.456Z,29.14
2019-05-26T13:27:30.916Z,28.94
2019-05-26T13:30:02.552Z,28.61
2019-05-26T13:32:35.136Z,28.53
2019-05-26T13:35:07.165Z,28.04
2019-05-26T13:37:38.993Z,28.19
2019-05-26T13:40:10.641Z,28.33
2019-05-26T13:42:42.269Z,28.48
2019-05-26T13:45:22.211Z,28.59
2019-05-26T13:47:47.728Z,28.39
2019-05-26T13:50:21.035Z,28.36
2019-05-26T13:52:52.448Z,28.27
2019-05-26T13:55:24.158Z,28.62
2019-05-26T13:57:55.490Z,28.66
2019-05-26T14:00:27.155Z,28.36
2019-05-26T14:02:59.291Z,28.54
2019-05-26T14:05:31.068Z,28.37
2019-05-26T14:08:02.424Z,28.21
2019-05-26T14:10:37.975Z,28.18
2019-05-26T14:13:09.874Z,27.65
2019-05-26T14:15:41.331Z,27.74
2019-05-26T14:18:13.835Z,27.56
2019-05-26T14:20:45.846Z,27.23
2019-05-26T14:23:17.401Z,27.23
2019-05-26T14:25:48.826Z,27.14
2019-05-26T14:28:20.295Z,26.74
2019-05-26T14:30:52.029Z,26.90
2019-05-26T14:33:23.416Z,26.90
2019-05-26T14:35:54.921Z,27.35
2019-05-26T14:38:42.003Z,27.54
2019-05-26T14:40:59.661Z,27.54
2019-05-26T14:43:31.263Z,27.36
2019-05-26T14:46:02.998Z,26.88
2019-05-26T14:48:34.445Z,26.69
2019-05-26T14:51:05.953Z,26.78
2019-05-26T14:53:37.539Z,26.92
2019-05-26T14:56:08.970Z,26.91
2019-05-26T14:58:40.668Z,26.87
2019-05-26T15:01:12.114Z,26.87
2019-05-26T15:03:43.844Z,26.67
2019-05-26T15:06:15.514Z,26.82
2019-05-26T15:08:46.927Z,26.65
2019-05-26T15:11:18.482Z,26.67
2019-05-26T15:13:50.113Z,26.82
2019-05-26T15:16:21.622Z,26.86
2019-05-26T15:18:53.272Z,26.82
2019-05-26T15:21:24.760Z,26.78
2019-05-26T15:23:56.115Z,26.78
2019-05-26T15:26:27.607Z,26.74
2019-05-26T15:28:59.119Z,26.70
2019-05-26T15:31:30.356Z,26.70
2019-05-26T15:34:01.872Z,26.63
2019-05-26T15:36:33.416Z,26.35
2019-05-26T15:39:05.371Z,26.39
2019-05-26T15:41:36.938Z,26.35
2019-05-26T15:44:08.360Z,26.42
2019-05-26T15:46:39.873Z,26.33
2019-05-26T15:49:11.217Z,26.29
2019-05-26T15:51:42.520Z,26.16
2019-05-26T15:54:14.352Z,26.01
2019-05-26T15:56:46.125Z,26.07
2019-05-26T15:59:17.522Z,25.99
2019-05-26T16:01:49.268Z,25.88
2019-05-26T16:04:20.659Z,25.85
2019-05-26T16:06:52.253Z,25.85
2019-05-26T16:09:23.660Z,25.65
2019-05-26T16:11:55.394Z,25.66
2019-05-26T16:14:27.106Z,25.62
2019-05-26T16:16:58.709Z,25.63
2019-05-26T16:19:30.149Z,25.57
2019-05-26T16:22:01.618Z,25.45
2019-05-26T16:24:33.095Z,25.46
2019-05-26T16:27:18.158Z,25.39
2019-05-26T16:29:37.847Z,25.16
2019-05-26T16:32:10.293Z,25.07
2019-05-26T16:34:41.785Z,25.01
2019-05-26T16:37:13.115Z,24.67
2019-05-26T16:39:44.580Z,24.76
2019-05-26T16:42:15.924Z,24.59
2019-05-26T16:44:47.505Z,24.42
2019-05-26T16:47:19.126Z,24.53
2019-05-26T16:49:50.525Z,24.37
2019-05-26T16:52:21.938Z,24.27
2019-05-26T16:54:53.360Z,24.32
2019-05-26T16:57:24.697Z,24.31
2019-05-26T16:59:56.074Z,24.33
2019-05-26T17:02:27.483Z,24.13
2019-05-26T17:04:58.874Z,24.14
2019-05-26T17:07:30.367Z,23.94
2019-05-26T17:10:02.490Z,23.77
2019-05-26T17:12:34.142Z,23.78
2019-05-26T17:15:06.478Z,23.79
2019-05-26T17:17:38.256Z,23.76
2019-05-26T17:20:10.493Z,23.76
2019-05-26T17:22:41.990Z,23.73
2019-05-26T17:25:14.072Z,23.73
2019-05-26T17:27:45.932Z,23.69
2019-05-26T17:30:25.436Z,23.65
2019-05-26T17:32:57.471Z,23.60
2019-05-26T17:35:29.155Z,23.49
2019-05-26T17:38:00.390Z,23.47
2019-05-26T17:40:32.766Z,23.39
2019-05-26T17:43:04.244Z,23.35
2019-05-26T17:45:35.883Z,23.32
2019-05-26T17:48:07.662Z,23.25
2019-05-26T17:50:39.219Z,23.27
2019-05-26T17:53:10.647Z,23.17
2019-05-26T17:55:42.177Z,23.01
2019-05-26T17:58:13.858Z,22.94
2019-05-26T18:00:45.419Z,22.92
2019-05-26T18:03:17.320Z,22.76
2019-05-26T18:05:48.744Z,22.72
2019-05-26T18:08:20.507Z,22.53
2019-05-26T18:10:51.901Z,22.53
2019-05-26T18:13:24.732Z,22.59
2019-05-26T18:15:56.432Z,22.57
2019-05-26T18:18:27.965Z,22.61
2019-05-26T18:20:59.478Z,22.53
2019-05-26T18:23:31.910Z,22.61
2019-05-26T18:26:03.218Z,22.64
2019-05-26T18:28:34.927Z,22.53
2019-05-26T18:31:06.424Z,22.55
2019-05-26T18:33:37.870Z,22.51
2019-05-26T18:36:09.386Z,22.36
2019-05-26T18:38:40.676Z,22.37
2019-05-26T18:41:12.231Z,22.31
2019-05-26T18:43:43.937Z,22.26
2019-05-26T18:46:15.762Z,22.23
2019-05-26T18:48:47.462Z,22.14
2019-05-26T18:51:19.211Z,21.97
2019-05-26T18:53:51.536Z,22.01
2019-05-26T18:56:23.330Z,21.99
2019-05-26T18:58:54.682Z,21.93
2019-05-26T19:01:26.341Z,21.87
2019-05-26T19:03:57.788Z,21.84
2019-05-26T19:06:29.522Z,21.89
2019-05-26T19:09:01.060Z,21.94
2019-05-26T19:11:34.453Z,21.92
2019-05-26T19:14:06.370Z,21.89
2019-05-26T19:16:37.861Z,21.79
2019-05-26T19:19:09.511Z,21.88
2019-05-26T19:21:41.115Z,21.76
2019-05-26T19:24:12.591Z,21.81
2019-05-26T19:26:44.247Z,21.78
2019-05-26T19:29:15.687Z,21.69
2019-05-26T19:31:48.899Z,21.67
2019-05-26T19:34:27.865Z,21.64
2019-05-26T19:37:04.462Z,21.63
2019-05-26T19:39:37.720Z,21.69
2019-05-26T19:42:11.202Z,21.67
2019-05-26T19:44:45.150Z,21.61
2019-05-26T19:47:31.350Z,21.65
2019-05-26T19:50:14.884Z,21.59
2019-05-26T19:52:50.149Z,21.44
2019-05-26T19:55:25.617Z,21.39
2019-05-26T19:57:56.927Z,21.51
2019-05-26T20:00:28.966Z,21.43
2019-05-26T20:03:00.467Z,21.36
2019-05-26T20:05:31.859Z,21.12
2019-05-26T20:08:03.406Z,21.27
2019-05-26T20:10:35.086Z,21.27
2019-05-26T20:13:06.804Z,21.27
2019-05-26T20:15:41.293Z,21.24
2019-05-26T20:18:13.259Z,21.26
2019-05-26T20:20:44.738Z,21.26
2019-05-26T20:23:20.416Z,21.28
2019-05-26T20:25:53.932Z,21.19
2019-05-26T20:28:28.246Z,21.24
2019-05-26T20:31:04.248Z,21.21
2019-05-26T20:33:37.882Z,20.97
2019-05-26T20:36:11.193Z,20.95
2019-05-26T20:38:44.230Z,20.98
2019-05-26T20:41:16.379Z,21.01
2019-05-26T20:44:02.094Z,20.94
2019-05-26T20:46:33.971Z,20.87
2019-05-26T20:49:05.670Z,20.75
2019-05-26T20:51:37.235Z,20.71
2019-05-26T20:54:08.702Z,20.68
2019-05-26T20:56:40.257Z,20.75
2019-05-26T20:59:11.751Z,20.72
2019-05-26T21:01:43.289Z,20.74
2019-05-26T21:04:14.769Z,20.77
2019-05-26T21:06:47.785Z,20.70
2019-05-26T21:09:18.087Z,20.77
2019-05-26T21:11:49.629Z,20.76
2019-05-26T21:14:22.324Z,20.68
2019-05-26T21:16:53.751Z,20.70
2019-05-26T21:19:25.581Z,20.74
2019-05-26T21:21:57.042Z,20.68
2019-05-26T21:24:28.760Z,20.68
2019-05-26T21:27:00.167Z,20.73
2019-05-26T21:29:31.675Z,20.71
2019-05-26T21:32:03.261Z,20.72
2019-05-26T21:34:34.774Z,20.68
2019-05-26T21:37:06.694Z,20.69
2019-05-26T21:39:38.242Z,20.66
2019-05-26T21:42:09.952Z,20.68
2019-05-26T21:44:41.448Z,20.65
2019-05-26T21:47:12.771Z,20.58
2019-05-26T21:49:44.809Z,20.54
2019-05-26T21:52:16.491Z,20.51
2019-05-26T21:54:47.820Z,20.47
2019-05-26T21:57:21.506Z,20.42
2019-05-26T21:59:54.494Z,20.37
2019-05-26T22:02:27.752Z,20.40
2019-05-26T22:05:00.883Z,20.28
2019-05-26T22:07:35.111Z,20.23
2019-05-26T22:10:07.335Z,20.19
2019-05-26T22:12:40.179Z,20.09
2019-05-26T22:15:13.414Z,19.92
2019-05-26T22:17:47.296Z,19.87
2019-05-26T22:20:20.369Z,19.83
2019-05-26T22:22:50.575Z,19.71
2019-05-26T22:25:21.791Z,19.70
2019-05-26T22:27:53.474Z,19.61
2019-05-26T22:30:25.061Z,19.45
2019-05-26T22:32:56.762Z,19.41
2019-05-26T22:35:28.259Z,19.23
2019-05-26T22:37:59.711Z,19.15
2019-05-26T22:40:31.305Z,19.11
2019-05-26T22:43:02.775Z,19.16
2019-05-26T22:45:34.380Z,19.16
2019-05-26T22:48:05.974Z,19.16
2019-05-26T22:50:37.377Z,19.03
2019-05-26T22:53:08.799Z,19.10
2019-05-26T22:55:40.242Z,19.03
2019-05-26T22:58:11.804Z,18.98
2019-05-26T23:00:43.557Z,18.89
2019-05-26T23:03:15.173Z,18.86
2019-05-26T23:05:46.923Z,18.81
2019-05-26T23:08:18.347Z,18.79
2019-05-26T23:10:50.025Z,18.75
2019-05-26T23:13:21.375Z,18.64
2019-05-26T23:15:53.155Z,18.61
2019-05-26T23:18:24.492Z,18.45
2019-05-26T23:20:56.132Z,18.26
2019-05-26T23:23:27.617Z,18.30
2019-05-26T23:25:59.462Z,18.28
2019-05-26T23:28:30.926Z,18.31
2019-05-26T23:31:03.747Z,18.31
2019-05-26T23:33:35.310Z,18.21
2019-05-26T23:36:06.745Z,18.14
2019-05-26T23:38:38.445Z,18.10
2019-05-26T23:41:10.187Z,18.09
2019-05-26T23:43:43.027Z,18.12
2019-05-26T23:46:14.429Z,18.10
2019-05-26T23:48:45.833Z,18.04
2019-05-26T23:51:17.580Z,18.04
2019-05-26T23:53:49.090Z,18.04
2019-05-26T23:56:20.433Z,17.90
2019-05-26T23:58:52.149Z,17.86
